sensor_id;sensor_type;location;lat;lon;timestamp;temperature;humidity
13472;DHT22;6808;49.444;11.034;2023-03-23T00:01:21;11.00;99.60
13472;DHT22;6808;49.444;11.034;2023-03-23T00:03:48;11.00;99.80
13472;DHT22;6808;49.444;11.034;2023-03-23T00:06:16;11.00;99.80
13472;DHT22;6808;49.444;11.034;2023-03-23T00:08:47;11.80;99.90
13472;DHT22;6808;49.444;11.034;2023-03-23T00:11:19;11.00;99.80
13472;DHT22;6808;49.444;11.034;2023-03-23T00:13:47;10.90;99.70
13472;DHT22;6808;49.444;11.034;2023-03-23T00:16:13;10.90;99.70
13472;DHT22;6808;49.444;11.034;2023-03-23T00:18:51;10.90;99.60
13472;DHT22;6808;49.444;11.034;2023-03-23T00:21:21;10.90;99.60
13472;DHT22;6808;49.444;11.034;2023-03-23T00:23:51;10.90;99.50
13472;DHT22;6808;49.444;11.034;2023-03-23T00:26:17;10.90;99.50
13472;DHT22;6808;49.444;11.034;2023-03-23T00:28:44;10.70;99.60
13472;DHT22;6808;49.444;11.034;2023-03-23T00:31:12;10.60;99.90
13472;DHT22;6808;49.444;11.034;2023-03-23T00:33:38;10.60;99.90
13472;DHT22;6808;49.444;11.034;2023-03-23T00:36:07;10.50;99.90
13472;DHT22;6808;49.444;11.034;2023-03-23T00:38:34;10.40;99.90
13472;DHT22;6808;49.444;11.034;2023-03-23T00:41:00;10.40;99.90
13472;DHT22;6808;49.444;11.034;2023-03-23T00:43:28;10.40;99.90
13472;DHT22;6808;49.444;11.034;2023-03-23T00:45:55;10.30;99.90
13472;DHT22;6808;49.444;11.034;2023-03-23T00:48:22;10.40;99.90
13472;DHT22;6808;49.444;11.034;2023-03-23T00:50:49;10.50;99.90
13472;DHT22;6808;49.444;11.034;2023-03-23T00:53:15;10.50;99.90
13472;DHT22;6808;49.444;11.034;2023-03-23T00:55:42;10.50;99.90
13472;DHT22;6808;49.444;11.034;2023-03-23T00:58:09;10.50;99.90
13472;DHT22;6808;49.444;11.034;2023-03-23T01:00:35;10.60;99.60
13472;DHT22;6808;49.444;11.034;2023-03-23T01:03:01;10.60;99.40
13472;DHT22;6808;49.444;11.034;2023-03-23T01:05:26;10.60;99.50
13472;DHT22;6808;49.444;11.034;2023-03-23T01:08:00;10.60;99.60
13472;DHT22;6808;49.444;11.034;2023-03-23T01:10:27;10.70;99.90
13472;DHT22;6808;49.444;11.034;2023-03-23T01:12:53;10.70;99.80
13472;DHT22;6808;49.444;11.034;2023-03-23T01:15:20;10.70;99.50
13472;DHT22;6808;49.444;11.034;2023-03-23T01:17:46;10.70;99.50
13472;DHT22;6808;49.444;11.034;2023-03-23T01:20:14;10.80;99.20
13472;DHT22;6808;49.444;11.034;2023-03-23T01:22:41;10.80;98.80
13472;DHT22;6808;49.444;11.034;2023-03-23T01:25:08;10.80;98.60
13472;DHT22;6808;49.444;11.034;2023-03-23T01:27:34;10.80;98.50
13472;DHT22;6808;49.444;11.034;2023-03-23T01:30:00;10.90;98.30
13472;DHT22;6808;49.444;11.034;2023-03-23T01:32:26;10.90;98.30
13472;DHT22;6808;49.444;11.034;2023-03-23T01:34:52;10.90;98.20
13472;DHT22;6808;49.444;11.034;2023-03-23T01:37:17;10.90;98.00
13472;DHT22;6808;49.444;11.034;2023-03-23T01:39:45;11.00;98.30
13472;DHT22;6808;49.444;11.034;2023-03-23T01:42:11;11.00;98.20
13472;DHT22;6808;49.444;11.034;2023-03-23T01:47:02;11.00;97.90
13472;DHT22;6808;49.444;11.034;2023-03-23T01:49:33;11.00;97.80
13472;DHT22;6808;49.444;11.034;2023-03-23T01:52:08;11.00;97.80
13472;DHT22;6808;49.444;11.034;2023-03-23T01:54:36;11.00;97.70
13472;DHT22;6808;49.444;11.034;2023-03-23T01:57:11;11.00;97.70
13472;DHT22;6808;49.444;11.034;2023-03-23T01:59:39;11.00;97.70
13472;DHT22;6808;49.444;11.034;2023-03-23T02:02:08;11.00;97.50
13472;DHT22;6808;49.444;11.034;2023-03-23T02:04:36;11.00;97.50
13472;DHT22;6808;49.444;11.034;2023-03-23T02:07:03;11.10;97.20
13472;DHT22;6808;49.444;11.034;2023-03-23T02:09:28;11.10;96.90
13472;DHT22;6808;49.444;11.034;2023-03-23T02:11:54;11.20;97.00
13472;DHT22;6808;49.444;11.034;2023-03-23T02:14:21;11.20;96.90
13472;DHT22;6808;49.444;11.034;2023-03-23T02:17:00;11.20;96.80
13472;DHT22;6808;49.444;11.034;2023-03-23T02:23:13;11.20;96.70
13472;DHT22;6808;49.444;11.034;2023-03-23T02:31:29;11.30;96.80
13472;DHT22;6808;49.444;11.034;2023-03-23T02:34:00;11.30;96.60
13472;DHT22;6808;49.444;11.034;2023-03-23T02:36:29;11.40;96.20
13472;DHT22;6808;49.444;11.034;2023-03-23T02:41:42;11.40;96.10
13472;DHT22;6808;49.444;11.034;2023-03-23T02:44:09;11.40;95.90
13472;DHT22;6808;49.444;11.034;2023-03-23T02:46:36;11.40;95.90
13472;DHT22;6808;49.444;11.034;2023-03-23T02:49:03;11.40;95.90
13472;DHT22;6808;49.444;11.034;2023-03-23T02:51:33;11.40;95.80
13472;DHT22;6808;49.444;11.034;2023-03-23T02:53:59;11.40;95.60
13472;DHT22;6808;49.444;11.034;2023-03-23T02:56:27;11.40;95.50
13472;DHT22;6808;49.444;11.034;2023-03-23T02:58:55;11.40;95.80
13472;DHT22;6808;49.444;11.034;2023-03-23T03:03:58;11.40;95.70
13472;DHT22;6808;49.444;11.034;2023-03-23T03:09:26;11.50;95.50
13472;DHT22;6808;49.444;11.034;2023-03-23T03:11:59;11.50;95.40
13472;DHT22;6808;49.444;11.034;2023-03-23T03:14:31;11.50;95.30
13472;DHT22;6808;49.444;11.034;2023-03-23T03:17:12;11.50;95.30
13472;DHT22;6808;49.444;11.034;2023-03-23T03:19:42;11.60;95.10
13472;DHT22;6808;49.444;11.034;2023-03-23T03:22:08;11.60;95.20
13472;DHT22;6808;49.444;11.034;2023-03-23T03:24:35;11.60;95.00
13472;DHT22;6808;49.444;11.034;2023-03-23T03:27:11;11.50;95.00
13472;DHT22;6808;49.444;11.034;2023-03-23T03:29:41;11.60;95.10
13472;DHT22;6808;49.444;11.034;2023-03-23T03:32:11;11.50;95.10
13472;DHT22;6808;49.444;11.034;2023-03-23T03:34:37;11.50;95.20
13472;DHT22;6808;49.444;11.034;2023-03-23T03:37:04;11.50;95.20
13472;DHT22;6808;49.444;11.034;2023-03-23T03:39:34;11.50;95.20
13472;DHT22;6808;49.444;11.034;2023-03-23T03:42:00;11.50;95.20
13472;DHT22;6808;49.444;11.034;2023-03-23T03:44:26;11.50;95.30
13472;DHT22;6808;49.444;11.034;2023-03-23T03:46:51;11.40;95.30
13472;DHT22;6808;49.444;11.034;2023-03-23T03:49:17;11.40;95.20
13472;DHT22;6808;49.444;11.034;2023-03-23T03:51:42;11.40;95.40
13472;DHT22;6808;49.444;11.034;2023-03-23T03:54:08;11.40;95.40
13472;DHT22;6808;49.444;11.034;2023-03-23T03:56:33;11.40;95.50
13472;DHT22;6808;49.444;11.034;2023-03-23T03:59:06;11.40;96.10
13472;DHT22;6808;49.444;11.034;2023-03-23T04:01:33;11.30;96.40
13472;DHT22;6808;49.444;11.034;2023-03-23T04:03:59;11.40;96.20
13472;DHT22;6808;49.444;11.034;2023-03-23T04:06:24;11.30;96.50
13472;DHT22;6808;49.444;11.034;2023-03-23T04:08:56;11.20;96.60
13472;DHT22;6808;49.444;11.034;2023-03-23T04:11:22;11.20;96.80
13472;DHT22;6808;49.444;11.034;2023-03-23T04:13:47;11.20;97.20
13472;DHT22;6808;49.444;11.034;2023-03-23T04:16:13;11.20;97.20
13472;DHT22;6808;49.444;11.034;2023-03-23T04:18:38;11.20;96.70
13472;DHT22;6808;49.444;11.034;2023-03-23T04:21:05;11.20;96.60
13472;DHT22;6808;49.444;11.034;2023-03-23T04:23:33;11.30;96.60
13472;DHT22;6808;49.444;11.034;2023-03-23T04:26:01;11.30;96.50
13472;DHT22;6808;49.444;11.034;2023-03-23T04:28:28;11.30;96.60
13472;DHT22;6808;49.444;11.034;2023-03-23T04:30:55;11.30;96.70
13472;DHT22;6808;49.444;11.034;2023-03-23T04:33:23;11.30;96.60
13472;DHT22;6808;49.444;11.034;2023-03-23T04:35:53;11.30;96.60
13472;DHT22;6808;49.444;11.034;2023-03-23T04:38:21;11.30;96.70
13472;DHT22;6808;49.444;11.034;2023-03-23T04:40:49;11.30;97.00
13472;DHT22;6808;49.444;11.034;2023-03-23T04:43:22;11.20;97.10
13472;DHT22;6808;49.444;11.034;2023-03-23T04:45:57;11.30;97.10
13472;DHT22;6808;49.444;11.034;2023-03-23T04:48:24;11.30;97.10
13472;DHT22;6808;49.444;11.034;2023-03-23T04:50:51;11.30;96.90
13472;DHT22;6808;49.444;11.034;2023-03-23T04:53:17;11.30;96.90
13472;DHT22;6808;49.444;11.034;2023-03-23T04:55:43;11.40;97.00
13472;DHT22;6808;49.444;11.034;2023-03-23T04:58:09;11.30;97.10
13472;DHT22;6808;49.444;11.034;2023-03-23T05:00:37;11.30;97.10
13472;DHT22;6808;49.444;11.034;2023-03-23T05:03:03;11.60;97.20
13472;DHT22;6808;49.444;11.034;2023-03-23T05:05:29;11.30;96.90
13472;DHT22;6808;49.444;11.034;2023-03-23T05:07:56;11.40;96.90
13472;DHT22;6808;49.444;11.034;2023-03-23T05:10:22;11.40;96.80
13472;DHT22;6808;49.444;11.034;2023-03-23T05:12:48;11.40;96.70
13472;DHT22;6808;49.444;11.034;2023-03-23T05:15:15;11.40;96.80
13472;DHT22;6808;49.444;11.034;2023-03-23T05:17:41;11.40;96.80
13472;DHT22;6808;49.444;11.034;2023-03-23T05:20:11;11.40;96.80
13472;DHT22;6808;49.444;11.034;2023-03-23T05:22:37;11.50;97.00
13472;DHT22;6808;49.444;11.034;2023-03-23T05:25:04;11.50;96.80
13472;DHT22;6808;49.444;11.034;2023-03-23T05:27:30;11.40;97.10
13472;DHT22;6808;49.444;11.034;2023-03-23T05:29:59;11.50;97.00
13472;DHT22;6808;49.444;11.034;2023-03-23T05:32:26;11.50;96.60
13472;DHT22;6808;49.444;11.034;2023-03-23T05:35:01;11.50;96.70
13472;DHT22;6808;49.444;11.034;2023-03-23T05:37:29;11.50;96.80
13472;DHT22;6808;49.444;11.034;2023-03-23T05:39:58;11.40;96.70
13472;DHT22;6808;49.444;11.034;2023-03-23T05:42:33;11.50;96.80
13472;DHT22;6808;49.444;11.034;2023-03-23T05:45:04;11.50;96.70
13472;DHT22;6808;49.444;11.034;2023-03-23T05:47:34;10.60;96.00
13472;DHT22;6808;49.444;11.034;2023-03-23T05:50:00;11.50;96.70
13472;DHT22;6808;49.444;11.034;2023-03-23T05:52:26;11.60;97.00
13472;DHT22;6808;49.444;11.034;2023-03-23T05:54:52;11.60;96.60
13472;DHT22;6808;49.444;11.034;2023-03-23T05:57:18;11.60;96.50
13472;DHT22;6808;49.444;11.034;2023-03-23T05:59:47;11.60;96.50
13472;DHT22;6808;49.444;11.034;2023-03-23T06:02:12;11.70;96.50
13472;DHT22;6808;49.444;11.034;2023-03-23T06:04:40;11.70;96.70
13472;DHT22;6808;49.444;11.034;2023-03-23T06:07:06;11.70;96.20
13472;DHT22;6808;49.444;11.034;2023-03-23T06:09:32;11.70;96.30
13472;DHT22;6808;49.444;11.034;2023-03-23T06:11:58;11.70;96.10
13472;DHT22;6808;49.444;11.034;2023-03-23T06:14:25;11.90;96.80
13472;DHT22;6808;49.444;11.034;2023-03-23T06:16:51;11.90;97.20
13472;DHT22;6808;49.444;11.034;2023-03-23T06:19:17;12.30;98.10
13472;DHT22;6808;49.444;11.034;2023-03-23T06:21:43;11.90;97.90
13472;DHT22;6808;49.444;11.034;2023-03-23T06:24:09;11.90;97.30
13472;DHT22;6808;49.444;11.034;2023-03-23T06:26:37;11.90;97.20
13472;DHT22;6808;49.444;11.034;2023-03-23T06:29:04;12.00;97.00
13472;DHT22;6808;49.444;11.034;2023-03-23T06:31:44;12.20;96.90
13472;DHT22;6808;49.444;11.034;2023-03-23T06:34:10;12.00;96.90
13472;DHT22;6808;49.444;11.034;2023-03-23T06:36:37;12.00;96.80
13472;DHT22;6808;49.444;11.034;2023-03-23T06:39:04;12.10;96.50
13472;DHT22;6808;49.444;11.034;2023-03-23T06:41:30;12.10;96.40
13472;DHT22;6808;49.444;11.034;2023-03-23T06:43:56;12.20;95.90
13472;DHT22;6808;49.444;11.034;2023-03-23T06:46:22;12.20;96.10
13472;DHT22;6808;49.444;11.034;2023-03-23T06:48:47;12.20;96.30
13472;DHT22;6808;49.444;11.034;2023-03-23T06:51:15;12.20;96.10
13472;DHT22;6808;49.444;11.034;2023-03-23T06:53:42;12.20;96.40
13472;DHT22;6808;49.444;11.034;2023-03-23T06:56:08;12.20;96.50
13472;DHT22;6808;49.444;11.034;2023-03-23T06:58:34;12.30;95.90
13472;DHT22;6808;49.444;11.034;2023-03-23T07:01:00;12.30;96.20
13472;DHT22;6808;49.444;11.034;2023-03-23T07:03:26;12.30;96.60
13472;DHT22;6808;49.444;11.034;2023-03-23T07:05:53;12.30;96.20
13472;DHT22;6808;49.444;11.034;2023-03-23T07:08:19;12.80;96.70
13472;DHT22;6808;49.444;11.034;2023-03-23T07:10:46;12.40;96.50
13472;DHT22;6808;49.444;11.034;2023-03-23T07:13:11;12.50;97.50
13472;DHT22;6808;49.444;11.034;2023-03-23T07:15:38;12.90;96.80
13472;DHT22;6808;49.444;11.034;2023-03-23T07:18:04;12.60;96.30
13472;DHT22;6808;49.444;11.034;2023-03-23T07:20:30;12.80;97.00
13472;DHT22;6808;49.444;11.034;2023-03-23T07:22:55;12.80;95.50
13472;DHT22;6808;49.444;11.034;2023-03-23T07:25:21;12.90;95.20
13472;DHT22;6808;49.444;11.034;2023-03-23T07:27:47;13.00;95.10
13472;DHT22;6808;49.444;11.034;2023-03-23T07:30:13;13.10;95.20
13472;DHT22;6808;49.444;11.034;2023-03-23T07:32:41;13.10;95.40
13472;DHT22;6808;49.444;11.034;2023-03-23T07:35:08;13.10;95.50
13472;DHT22;6808;49.444;11.034;2023-03-23T07:37:34;13.10;94.80
13472;DHT22;6808;49.444;11.034;2023-03-23T07:40:02;13.10;95.00
13472;DHT22;6808;49.444;11.034;2023-03-23T07:42:43;13.10;95.20
13472;DHT22;6808;49.444;11.034;2023-03-23T07:45:11;13.20;95.00
13472;DHT22;6808;49.444;11.034;2023-03-23T07:47:39;13.20;94.90
13472;DHT22;6808;49.444;11.034;2023-03-23T07:50:05;13.20;95.10
13472;DHT22;6808;49.444;11.034;2023-03-23T07:52:32;13.20;95.30
13472;DHT22;6808;49.444;11.034;2023-03-23T07:54:58;13.20;95.40
13472;DHT22;6808;49.444;11.034;2023-03-23T07:57:24;13.30;95.50
13472;DHT22;6808;49.444;11.034;2023-03-23T07:59:49;13.30;95.70
13472;DHT22;6808;49.444;11.034;2023-03-23T08:02:17;13.30;95.50
13472;DHT22;6808;49.444;11.034;2023-03-23T08:04:42;13.40;96.20
13472;DHT22;6808;49.444;11.034;2023-03-23T08:07:10;13.10;96.50
13472;DHT22;6808;49.444;11.034;2023-03-23T08:09:38;13.40;97.40
13472;DHT22;6808;49.444;11.034;2023-03-23T08:12:04;13.40;97.40
13472;DHT22;6808;49.444;11.034;2023-03-23T08:14:30;13.40;97.40
13472;DHT22;6808;49.444;11.034;2023-03-23T08:16:56;13.40;97.00
13472;DHT22;6808;49.444;11.034;2023-03-23T08:19:23;13.40;97.10
13472;DHT22;6808;49.444;11.034;2023-03-23T08:21:49;13.40;97.10
13472;DHT22;6808;49.444;11.034;2023-03-23T08:24:15;13.20;96.90
13472;DHT22;6808;49.444;11.034;2023-03-23T08:26:40;13.40;97.30
13472;DHT22;6808;49.444;11.034;2023-03-23T08:29:07;13.40;97.30
13472;DHT22;6808;49.444;11.034;2023-03-23T08:31:33;13.40;97.20
13472;DHT22;6808;49.444;11.034;2023-03-23T08:34:04;13.40;97.30
13472;DHT22;6808;49.444;11.034;2023-03-23T08:36:33;13.30;97.70
13472;DHT22;6808;49.444;11.034;2023-03-23T08:38:59;13.30;97.60
13472;DHT22;6808;49.444;11.034;2023-03-23T08:41:26;13.40;97.80
13472;DHT22;6808;49.444;11.034;2023-03-23T08:43:51;13.40;97.30
13472;DHT22;6808;49.444;11.034;2023-03-23T08:46:18;13.40;97.10
13472;DHT22;6808;49.444;11.034;2023-03-23T08:48:45;13.40;97.70
13472;DHT22;6808;49.444;11.034;2023-03-23T08:51:11;13.40;96.90
13472;DHT22;6808;49.444;11.034;2023-03-23T08:53:37;13.50;97.00
13472;DHT22;6808;49.444;11.034;2023-03-23T08:56:09;13.50;97.10
13472;DHT22;6808;49.444;11.034;2023-03-23T08:58:35;13.50;97.00
13472;DHT22;6808;49.444;11.034;2023-03-23T09:01:02;13.50;98.10
13472;DHT22;6808;49.444;11.034;2023-03-23T09:03:29;13.50;98.00
13472;DHT22;6808;49.444;11.034;2023-03-23T09:06:02;13.50;98.20
13472;DHT22;6808;49.444;11.034;2023-03-23T09:08:28;13.40;97.60
13472;DHT22;6808;49.444;11.034;2023-03-23T09:10:58;13.50;98.00
13472;DHT22;6808;49.444;11.034;2023-03-23T09:13:24;13.60;98.00
13472;DHT22;6808;49.444;11.034;2023-03-23T09:15:50;13.50;97.80
13472;DHT22;6808;49.444;11.034;2023-03-23T09:18:16;13.60;98.10
13472;DHT22;6808;49.444;11.034;2023-03-23T09:20:42;13.60;98.70
13472;DHT22;6808;49.444;11.034;2023-03-23T09:23:11;13.60;98.40
13472;DHT22;6808;49.444;11.034;2023-03-23T09:25:38;14.20;98.20
13472;DHT22;6808;49.444;11.034;2023-03-23T09:28:04;13.70;97.40
13472;DHT22;6808;49.444;11.034;2023-03-23T09:30:31;13.70;97.10
13472;DHT22;6808;49.444;11.034;2023-03-23T09:32:59;13.80;97.50
13472;DHT22;6808;49.444;11.034;2023-03-23T09:35:27;13.90;97.60
13472;DHT22;6808;49.444;11.034;2023-03-23T09:37:52;13.90;97.40
13472;DHT22;6808;49.444;11.034;2023-03-23T09:40:24;14.00;96.70
13472;DHT22;6808;49.444;11.034;2023-03-23T09:48:38;14.00;96.70
13472;DHT22;6808;49.444;11.034;2023-03-23T09:51:54;14.10;96.60
13472;DHT22;6808;49.444;11.034;2023-03-23T09:53:57;14.00;96.70
13472;DHT22;6808;49.444;11.034;2023-03-23T09:56:25;14.20;95.90
13472;DHT22;6808;49.444;11.034;2023-03-23T09:59:16;14.30;96.20
13472;DHT22;6808;49.444;11.034;2023-03-23T10:01:55;14.40;95.80
13472;DHT22;6808;49.444;11.034;2023-03-23T10:04:44;14.40;96.40
13472;DHT22;6808;49.444;11.034;2023-03-23T10:07:20;14.40;96.10
13472;DHT22;6808;49.444;11.034;2023-03-23T10:09:51;14.50;96.00
13472;DHT22;6808;49.444;11.034;2023-03-23T10:12:40;14.50;95.70
13472;DHT22;6808;49.444;11.034;2023-03-23T10:15:09;14.60;96.10
13472;DHT22;6808;49.444;11.034;2023-03-23T10:17:44;14.60;95.30
13472;DHT22;6808;49.444;11.034;2023-03-23T10:22:45;14.60;95.60
13472;DHT22;6808;49.444;11.034;2023-03-23T10:25:16;14.60;95.60
13472;DHT22;6808;49.444;11.034;2023-03-23T10:28:05;14.60;96.30
13472;DHT22;6808;49.444;11.034;2023-03-23T10:30:48;14.60;95.80
13472;DHT22;6808;49.444;11.034;2023-03-23T10:35:50;14.50;96.80
13472;DHT22;6808;49.444;11.034;2023-03-23T10:38:23;14.60;97.50
13472;DHT22;6808;49.444;11.034;2023-03-23T10:41:01;14.60;97.80
13472;DHT22;6808;49.444;11.034;2023-03-23T10:43:31;14.60;97.30
13472;DHT22;6808;49.444;11.034;2023-03-23T10:46:02;14.60;97.20
13472;DHT22;6808;49.444;11.034;2023-03-23T10:48:35;14.60;97.20
13472;DHT22;6808;49.444;11.034;2023-03-23T10:51:04;14.60;97.20
13472;DHT22;6808;49.444;11.034;2023-03-23T10:53:37;14.60;97.40
13472;DHT22;6808;49.444;11.034;2023-03-23T10:56:04;14.60;97.30
13472;DHT22;6808;49.444;11.034;2023-03-23T10:58:32;14.60;97.40
13472;DHT22;6808;49.444;11.034;2023-03-23T11:01:00;14.60;97.20
13472;DHT22;6808;49.444;11.034;2023-03-23T11:03:41;14.60;97.60
13472;DHT22;6808;49.444;11.034;2023-03-23T11:06:10;14.50;97.40
13472;DHT22;6808;49.444;11.034;2023-03-23T11:09:00;14.50;97.60
13472;DHT22;6808;49.444;11.034;2023-03-23T11:11:31;14.50;98.10
13472;DHT22;6808;49.444;11.034;2023-03-23T11:13:59;14.50;98.10
13472;DHT22;6808;49.444;11.034;2023-03-23T11:16:31;14.50;98.00
13472;DHT22;6808;49.444;11.034;2023-03-23T11:19:11;14.50;98.20
13472;DHT22;6808;49.444;11.034;2023-03-23T11:21:37;14.40;98.30
13472;DHT22;6808;49.444;11.034;2023-03-23T11:24:05;14.40;98.50
13472;DHT22;6808;49.444;11.034;2023-03-23T11:26:33;14.40;98.50
13472;DHT22;6808;49.444;11.034;2023-03-23T11:29:18;14.70;98.90
13472;DHT22;6808;49.444;11.034;2023-03-23T11:31:49;14.30;98.70
13472;DHT22;6808;49.444;11.034;2023-03-23T11:34:29;14.40;98.80
13472;DHT22;6808;49.444;11.034;2023-03-23T11:37:02;14.40;98.70
13472;DHT22;6808;49.444;11.034;2023-03-23T11:39:30;14.40;98.80
13472;DHT22;6808;49.444;11.034;2023-03-23T11:42:02;14.40;98.90
13472;DHT22;6808;49.444;11.034;2023-03-23T11:44:41;14.40;98.70
13472;DHT22;6808;49.444;11.034;2023-03-23T11:52:55;14.50;99.50
13472;DHT22;6808;49.444;11.034;2023-03-23T11:58:13;14.60;99.20
13472;DHT22;6808;49.444;11.034;2023-03-23T12:00:56;14.60;99.60
13472;DHT22;6808;49.444;11.034;2023-03-23T12:03:23;14.50;99.50
13472;DHT22;6808;49.444;11.034;2023-03-23T12:06:00;14.50;99.40
13472;DHT22;6808;49.444;11.034;2023-03-23T12:11:50;14.60;99.90
13472;DHT22;6808;49.444;11.034;2023-03-23T12:23:11;14.70;99.90
13472;DHT22;6808;49.444;11.034;2023-03-23T12:25:56;16.00;99.90
13472;DHT22;6808;49.444;11.034;2023-03-23T12:28:40;14.80;99.50
13472;DHT22;6808;49.444;11.034;2023-03-23T12:31:22;14.90;99.90
13472;DHT22;6808;49.444;11.034;2023-03-23T12:36:58;15.00;99.30
13472;DHT22;6808;49.444;11.034;2023-03-23T12:39:57;15.10;99.00
13472;DHT22;6808;49.444;11.034;2023-03-23T12:45:24;15.20;98.70
13472;DHT22;6808;49.444;11.034;2023-03-23T12:48:05;15.20;98.60
13472;DHT22;6808;49.444;11.034;2023-03-23T12:50:42;15.20;98.70
13472;DHT22;6808;49.444;11.034;2023-03-23T12:53:20;15.20;98.70
13472;DHT22;6808;49.444;11.034;2023-03-23T12:56:19;15.20;98.70
13472;DHT22;6808;49.444;11.034;2023-03-23T12:58:51;15.30;98.20
13472;DHT22;6808;49.444;11.034;2023-03-23T13:01:30;15.30;98.10
13472;DHT22;6808;49.444;11.034;2023-03-23T13:04:26;15.30;98.40
13472;DHT22;6808;49.444;11.034;2023-03-23T13:06:53;15.40;98.30
13472;DHT22;6808;49.444;11.034;2023-03-23T13:12:10;15.40;97.90
13472;DHT22;6808;49.444;11.034;2023-03-23T13:15:23;15.40;97.50
13472;DHT22;6808;49.444;11.034;2023-03-23T13:26:17;15.60;97.10
13472;DHT22;6808;49.444;11.034;2023-03-23T13:31:41;15.60;97.00
13472;DHT22;6808;49.444;11.034;2023-03-23T13:34:19;15.60;97.10
13472;DHT22;6808;49.444;11.034;2023-03-23T13:39:25;15.60;97.00
13472;DHT22;6808;49.444;11.034;2023-03-23T13:42:05;15.60;97.30
13472;DHT22;6808;49.444;11.034;2023-03-23T13:50:00;15.70;97.50
13472;DHT22;6808;49.444;11.034;2023-03-23T14:05:45;15.80;97.10
13472;DHT22;6808;49.444;11.034;2023-03-23T14:11:24;15.70;97.50
13472;DHT22;6808;49.444;11.034;2023-03-23T14:14:00;15.80;97.50
13472;DHT22;6808;49.444;11.034;2023-03-23T14:16:39;16.50;98.00
13472;DHT22;6808;49.444;11.034;2023-03-23T14:19:24;15.90;97.70
13472;DHT22;6808;49.444;11.034;2023-03-23T14:21:57;15.90;97.30
13472;DHT22;6808;49.444;11.034;2023-03-23T14:24:24;15.90;97.90
13472;DHT22;6808;49.444;11.034;2023-03-23T14:26:52;16.10;97.80
13472;DHT22;6808;49.444;11.034;2023-03-23T14:29:20;16.00;97.20
13472;DHT22;6808;49.444;11.034;2023-03-23T14:31:51;16.00;97.30
13472;DHT22;6808;49.444;11.034;2023-03-23T14:34:19;16.10;97.00
13472;DHT22;6808;49.444;11.034;2023-03-23T14:36:46;15.90;96.90
13472;DHT22;6808;49.444;11.034;2023-03-23T14:39:33;15.90;96.90
13472;DHT22;6808;49.444;11.034;2023-03-23T14:42:25;15.80;96.90
13472;DHT22;6808;49.444;11.034;2023-03-23T14:44:51;15.80;97.30
13472;DHT22;6808;49.444;11.034;2023-03-23T14:47:23;15.80;97.00
13472;DHT22;6808;49.444;11.034;2023-03-23T14:49:55;15.70;96.90
13472;DHT22;6808;49.444;11.034;2023-03-23T14:52:27;15.40;97.20
13472;DHT22;6808;49.444;11.034;2023-03-23T14:54:53;16.00;97.60
13472;DHT22;6808;49.444;11.034;2023-03-23T14:57:27;15.70;97.50
13472;DHT22;6808;49.444;11.034;2023-03-23T14:59:53;15.70;97.50
13472;DHT22;6808;49.444;11.034;2023-03-23T15:02:30;15.70;97.50
13472;DHT22;6808;49.444;11.034;2023-03-23T15:05:00;15.70;97.90
13472;DHT22;6808;49.444;11.034;2023-03-23T15:07:31;15.70;98.10
13472;DHT22;6808;49.444;11.034;2023-03-23T15:09:58;15.70;97.80
13472;DHT22;6808;49.444;11.034;2023-03-23T15:12:26;15.70;97.60
13472;DHT22;6808;49.444;11.034;2023-03-23T15:14:56;15.70;97.90
13472;DHT22;6808;49.444;11.034;2023-03-23T15:17:24;15.70;98.00
13472;DHT22;6808;49.444;11.034;2023-03-23T15:19:52;15.80;98.20
13472;DHT22;6808;49.444;11.034;2023-03-23T15:22:30;15.60;98.20
13472;DHT22;6808;49.444;11.034;2023-03-23T15:25:31;15.60;98.50
13472;DHT22;6808;49.444;11.034;2023-03-23T15:30:32;15.50;98.00
13472;DHT22;6808;49.444;11.034;2023-03-23T15:33:10;15.40;98.10
13472;DHT22;6808;49.444;11.034;2023-03-23T15:35:39;15.40;98.20
13472;DHT22;6808;49.444;11.034;2023-03-23T15:38:19;15.40;98.40
13472;DHT22;6808;49.444;11.034;2023-03-23T15:40:50;15.30;98.40
13472;DHT22;6808;49.444;11.034;2023-03-23T15:43:22;15.30;98.40
13472;DHT22;6808;49.444;11.034;2023-03-23T15:46:18;15.40;98.80
13472;DHT22;6808;49.444;11.034;2023-03-23T15:48:50;15.40;98.60
13472;DHT22;6808;49.444;11.034;2023-03-23T15:51:18;15.40;98.80
13472;DHT22;6808;49.444;11.034;2023-03-23T15:53:44;15.40;98.60
13472;DHT22;6808;49.444;11.034;2023-03-23T15:56:12;15.50;98.90
13472;DHT22;6808;49.444;11.034;2023-03-23T15:58:38;15.60;98.80
13472;DHT22;6808;49.444;11.034;2023-03-23T16:01:25;15.40;98.50
13472;DHT22;6808;49.444;11.034;2023-03-23T16:06:30;15.40;98.80
13472;DHT22;6808;49.444;11.034;2023-03-23T16:08:57;15.40;98.70
13472;DHT22;6808;49.444;11.034;2023-03-23T16:11:25;15.40;99.10
13472;DHT22;6808;49.444;11.034;2023-03-23T16:13:51;15.40;99.10
13472;DHT22;6808;49.444;11.034;2023-03-23T16:16:32;15.30;99.20
13472;DHT22;6808;49.444;11.034;2023-03-23T16:18:58;15.30;99.30
13472;DHT22;6808;49.444;11.034;2023-03-23T16:21:24;15.30;99.50
13472;DHT22;6808;49.444;11.034;2023-03-23T16:23:50;15.30;99.60
13472;DHT22;6808;49.444;11.034;2023-03-23T16:26:16;15.30;99.40
13472;DHT22;6808;49.444;11.034;2023-03-23T16:28:43;15.30;99.40
13472;DHT22;6808;49.444;11.034;2023-03-23T16:31:10;15.30;99.60
13472;DHT22;6808;49.444;11.034;2023-03-23T16:33:35;15.30;99.60
13472;DHT22;6808;49.444;11.034;2023-03-23T16:36:01;15.20;99.80
13472;DHT22;6808;49.444;11.034;2023-03-23T16:38:27;15.20;99.90
13472;DHT22;6808;49.444;11.034;2023-03-23T16:40:52;15.20;99.90
13472;DHT22;6808;49.444;11.034;2023-03-23T16:43:18;15.20;99.90
13472;DHT22;6808;49.444;11.034;2023-03-23T16:45:45;15.20;99.90
13472;DHT22;6808;49.444;11.034;2023-03-23T16:48:12;15.20;99.90
13472;DHT22;6808;49.444;11.034;2023-03-23T16:50:38;15.10;99.90
13472;DHT22;6808;49.444;11.034;2023-03-23T16:53:05;15.30;99.90
13472;DHT22;6808;49.444;11.034;2023-03-23T16:55:32;15.10;99.90
13472;DHT22;6808;49.444;11.034;2023-03-23T16:57:58;15.00;99.90
13472;DHT22;6808;49.444;11.034;2023-03-23T17:00:24;15.00;99.90
13472;DHT22;6808;49.444;11.034;2023-03-23T17:02:52;15.00;99.90
13472;DHT22;6808;49.444;11.034;2023-03-23T17:05:25;15.00;99.90
13472;DHT22;6808;49.444;11.034;2023-03-23T17:07:52;15.00;99.90
13472;DHT22;6808;49.444;11.034;2023-03-23T17:10:20;15.00;99.90
13472;DHT22;6808;49.444;11.034;2023-03-23T17:12:46;15.00;99.90
13472;DHT22;6808;49.444;11.034;2023-03-23T17:15:11;15.00;99.90
13472;DHT22;6808;49.444;11.034;2023-03-23T17:17:37;15.00;99.90
13472;DHT22;6808;49.444;11.034;2023-03-23T17:20:03;14.90;99.90
13472;DHT22;6808;49.444;11.034;2023-03-23T17:22:29;14.90;99.90
13472;DHT22;6808;49.444;11.034;2023-03-23T17:24:55;14.90;99.90
13472;DHT22;6808;49.444;11.034;2023-03-23T17:27:22;14.90;99.90